createdAt,value
2018-08-10T00:01:39.200Z,16.70
2018-08-10T00:04:08.453Z,16.70
2018-08-10T00:06:37.624Z,16.80
2018-08-10T00:09:08.818Z,16.80
2018-08-10T00:11:38.003Z,16.90
2018-08-10T00:14:07.247Z,16.90
2018-08-10T00:16:36.503Z,16.90
2018-08-10T00:19:05.701Z,16.90
2018-08-10T00:21:34.929Z,16.80
2018-08-10T00:24:04.113Z,16.70
2018-08-10T00:26:33.326Z,16.60
2018-08-10T00:29:02.528Z,16.60
2018-08-10T00:31:32.162Z,16.60
2018-08-10T00:34:01.295Z,16.60
2018-08-10T00:36:30.482Z,16.60
2018-08-10T00:38:59.639Z,16.60
2018-08-10T00:41:28.884Z,16.70
2018-08-10T00:43:58.843Z,16.70
2018-08-10T00:46:28.123Z,16.80
2018-08-10T00:48:57.355Z,16.80
2018-08-10T00:51:26.550Z,16.80
2018-08-10T00:53:55.739Z,16.70
2018-08-10T00:56:24.944Z,16.70
2018-08-10T00:58:54.155Z,16.70
2018-08-10T01:01:23.419Z,16.70
2018-08-10T01:03:52.630Z,16.70
2018-08-10T01:06:21.846Z,16.70
2018-08-10T01:08:51.130Z,16.70
2018-08-10T01:11:20.339Z,16.70
2018-08-10T01:13:49.511Z,16.70
2018-08-10T01:16:18.734Z,16.60
2018-08-10T01:18:47.893Z,16.50
2018-08-10T01:21:17.150Z,16.40
2018-08-10T01:23:46.335Z,16.40
2018-08-10T01:26:15.530Z,16.30
2018-08-10T01:28:44.818Z,16.20
2018-08-10T01:31:14.056Z,16.10
2018-08-10T01:33:43.269Z,16.00
2018-08-10T01:36:12.402Z,16.00
2018-08-10T01:38:41.661Z,15.90
2018-08-10T01:41:10.815Z,15.80
2018-08-10T01:43:39.982Z,15.70
2018-08-10T01:46:09.205Z,15.60
2018-08-10T01:48:38.371Z,15.40
2018-08-10T01:51:07.573Z,15.40
2018-08-10T01:53:36.789Z,15.30
2018-08-10T01:56:05.925Z,15.30
2018-08-10T01:58:35.039Z,15.30
2018-08-10T02:01:08.188Z,15.30
2018-08-10T02:03:37.825Z,15.30
2018-08-10T02:06:07.104Z,15.30
2018-08-10T02:08:36.267Z,15.40
2018-08-10T02:11:05.498Z,15.50
2018-08-10T02:13:34.694Z,15.50
2018-08-10T02:16:03.934Z,15.60
2018-08-10T02:18:33.104Z,15.60
2018-08-10T02:21:02.319Z,15.60
2018-08-10T02:23:31.729Z,15.60
2018-08-10T02:26:00.917Z,15.60
2018-08-10T02:28:30.107Z,15.70
2018-08-10T02:30:59.323Z,15.60
2018-08-10T02:33:28.484Z,15.50
2018-08-10T02:35:57.682Z,15.50
2018-08-10T02:38:26.811Z,15.50
2018-08-10T02:40:55.969Z,15.50
2018-08-10T02:43:25.129Z,15.50
2018-08-10T02:45:54.327Z,15.40
2018-08-10T02:48:23.551Z,15.40
2018-08-10T02:50:52.822Z,15.30
2018-08-10T02:53:22.017Z,15.20
2018-08-10T02:55:51.285Z,15.20
2018-08-10T02:58:20.462Z,15.10
2018-08-10T03:00:49.575Z,15.00
2018-08-10T03:03:20.232Z,15.00
2018-08-10T03:05:49.471Z,15.00
2018-08-10T03:08:18.656Z,14.90
2018-08-10T03:10:47.807Z,14.90
2018-08-10T03:13:17.032Z,14.90
2018-08-10T03:15:46.245Z,14.80
2018-08-10T03:18:15.430Z,14.60
2018-08-10T03:20:44.561Z,14.40
2018-08-10T03:23:13.824Z,14.40
2018-08-10T03:25:42.975Z,14.30
2018-08-10T03:28:12.096Z,14.30
2018-08-10T03:30:41.270Z,14.30
2018-08-10T03:33:11.151Z,14.20
2018-08-10T03:35:40.314Z,14.20
2018-08-10T03:38:09.472Z,14.20
2018-08-10T03:40:38.599Z,14.10
2018-08-10T03:43:07.817Z,14.10
2018-08-10T03:45:37.026Z,14.00
2018-08-10T03:48:06.583Z,14.00
2018-08-10T03:50:35.757Z,14.10
2018-08-10T03:53:05.012Z,14.00
2018-08-10T03:55:34.152Z,14.00
2018-08-10T03:58:03.345Z,14.00
2018-08-10T04:00:33.287Z,14.00
2018-08-10T04:03:02.490Z,13.90
2018-08-10T04:05:31.684Z,14.00
2018-08-10T04:08:00.923Z,13.90
2018-08-10T04:10:30.737Z,13.90
2018-08-10T04:12:59.989Z,13.90
2018-08-10T04:15:29.559Z,13.80
2018-08-10T04:17:58.823Z,13.80
2018-08-10T04:20:28.017Z,13.80
2018-08-10T04:22:57.776Z,13.80
2018-08-10T04:25:27.011Z,13.80
2018-08-10T04:27:56.912Z,13.80
2018-08-10T04:30:26.704Z,13.80
2018-08-10T04:32:55.953Z,13.70
2018-08-10T04:35:25.084Z,13.70
2018-08-10T04:37:54.218Z,13.70
2018-08-10T04:40:23.368Z,13.60
2018-08-10T04:42:53.152Z,13.50
2018-08-10T04:45:22.337Z,13.50
2018-08-10T04:47:51.654Z,13.50
2018-08-10T04:50:21.383Z,13.50
2018-08-10T04:52:50.551Z,13.60
2018-08-10T04:55:19.690Z,13.80
2018-08-10T04:57:48.957Z,13.90
2018-08-10T05:00:18.216Z,14.00
2018-08-10T05:02:47.375Z,14.00
2018-08-10T05:05:17.018Z,14.10
2018-08-10T05:07:46.156Z,14.10
2018-08-10T05:10:15.404Z,14.00
2018-08-10T05:12:44.621Z,14.10
2018-08-10T05:15:13.851Z,14.30
2018-08-10T05:17:43.065Z,14.40
2018-08-10T05:20:12.698Z,14.50
2018-08-10T05:22:42.245Z,14.50
2018-08-10T05:25:11.469Z,14.50
2018-08-10T05:27:40.634Z,14.50
2018-08-10T05:30:10.847Z,14.50
2018-08-10T05:32:40.649Z,14.40
2018-08-10T05:35:10.488Z,14.40
2018-08-10T05:37:39.960Z,14.30
2018-08-10T05:40:10.180Z,14.30
2018-08-10T05:42:39.324Z,14.20
2018-08-10T05:45:08.632Z,14.20
2018-08-10T05:47:37.822Z,14.20
2018-08-10T05:50:07.269Z,14.40
2018-08-10T05:52:36.460Z,14.60
2018-08-10T05:55:06.364Z,14.80
2018-08-10T05:57:35.670Z,14.90
2018-08-10T06:00:06.072Z,14.80
2018-08-10T06:02:35.263Z,14.90
2018-08-10T06:05:04.583Z,15.00
2018-08-10T06:07:33.749Z,15.20
2018-08-10T06:10:02.869Z,15.20
2018-08-10T06:12:32.051Z,15.30
2018-08-10T06:15:01.163Z,15.50
2018-08-10T06:17:30.463Z,15.70
2018-08-10T06:19:59.654Z,15.50
2018-08-10T06:22:28.812Z,15.40
2018-08-10T06:24:58.041Z,15.30
2018-08-10T06:27:27.215Z,15.40
2018-08-10T06:29:56.413Z,15.50
2018-08-10T06:32:25.819Z,15.70
2018-08-10T06:34:55.097Z,15.70
2018-08-10T06:37:24.230Z,15.70
2018-08-10T06:39:53.414Z,15.70
2018-08-10T06:42:22.543Z,15.60
2018-08-10T06:44:51.750Z,15.60
2018-08-10T06:47:21.052Z,15.50
2018-08-10T06:49:50.207Z,15.50
2018-08-10T06:52:19.439Z,15.60
2018-08-10T06:54:48.641Z,15.80
2018-08-10T06:57:17.866Z,15.80
2018-08-10T06:59:47.093Z,16.00
2018-08-10T07:02:16.265Z,16.10
2018-08-10T07:04:46.089Z,16.20
2018-08-10T07:07:15.370Z,16.30
2018-08-10T07:09:44.621Z,16.30
2018-08-10T07:12:13.796Z,16.40
2018-08-10T07:14:43.078Z,16.50
2018-08-10T07:17:12.213Z,16.70
2018-08-10T07:19:42.051Z,16.70
2018-08-10T07:22:11.247Z,16.70
2018-08-10T07:24:40.415Z,16.80
2018-08-10T07:27:09.565Z,16.90
2018-08-10T07:29:38.716Z,16.90
2018-08-10T07:32:07.895Z,17.00
2018-08-10T07:34:37.727Z,17.10
2018-08-10T07:37:07.059Z,17.20
2018-08-10T07:39:36.221Z,17.10
2018-08-10T07:42:05.890Z,17.20
2018-08-10T07:44:35.151Z,17.20
2018-08-10T07:47:04.351Z,17.40
2018-08-10T07:49:33.540Z,17.30
2018-08-10T07:52:02.818Z,17.40
2018-08-10T07:54:31.946Z,17.40
2018-08-10T07:57:01.126Z,17.70
2018-08-10T07:59:30.400Z,17.60
2018-08-10T08:01:59.569Z,17.60
2018-08-10T08:04:28.765Z,17.70
2018-08-10T08:06:58.098Z,17.80
2018-08-10T08:09:27.274Z,17.80
2018-08-10T08:11:56.456Z,17.80
2018-08-10T08:14:25.697Z,17.90
2018-08-10T08:16:54.922Z,18.10
2018-08-10T08:19:24.129Z,18.10
2018-08-10T08:22:12.973Z,18.00
2018-08-10T08:24:42.722Z,18.10
2018-08-10T08:27:13.124Z,18.20
2018-08-10T08:29:42.261Z,18.10
2018-08-10T08:32:11.833Z,18.20
2018-08-10T08:34:41.174Z,18.30
2018-08-10T08:37:10.940Z,18.00
2018-08-10T08:40:46.118Z,18.00
2018-08-10T08:43:19.825Z,18.00
2018-08-10T08:46:12.934Z,18.40
2018-08-10T08:48:44.386Z,18.50
2018-08-10T08:51:18.331Z,18.70
2018-08-10T08:53:47.842Z,18.50
2018-08-10T08:56:19.465Z,18.50
2018-08-10T08:58:50.422Z,18.70
2018-08-10T09:01:19.682Z,18.90
2018-08-10T09:05:00.002Z,19.30
2018-08-10T09:07:29.989Z,19.60
2018-08-10T09:09:59.732Z,19.90
2018-08-10T09:12:29.245Z,20.00
2018-08-10T09:15:00.885Z,19.90
2018-08-10T09:17:30.412Z,19.80
2018-08-10T09:20:00.257Z,19.60
2018-08-10T09:22:29.658Z,19.40
2018-08-10T09:24:58.904Z,19.00
2018-08-10T09:27:28.055Z,18.90
2018-08-10T09:29:57.244Z,19.00
2018-08-10T09:32:26.434Z,19.30
2018-08-10T09:34:55.650Z,19.80
2018-08-10T09:37:24.826Z,20.10
2018-08-10T09:39:54.054Z,20.20
2018-08-10T09:42:23.294Z,19.40
2018-08-10T09:44:52.468Z,17.90
2018-08-10T09:47:21.700Z,16.80
2018-08-10T09:49:51.287Z,16.50
2018-08-10T09:52:21.060Z,16.10
2018-08-10T09:55:30.202Z,15.90
2018-08-10T09:58:02.744Z,15.60
2018-08-10T10:00:37.394Z,15.30
2018-08-10T10:03:12.919Z,14.70
2018-08-10T10:05:42.352Z,14.30
2018-08-10T10:08:11.608Z,14.30
2018-08-10T10:10:40.813Z,14.30
2018-08-10T10:13:10.042Z,14.20
2018-08-10T10:15:39.319Z,14.10
2018-08-10T10:18:10.044Z,14.20
2018-08-10T10:20:39.270Z,14.20
2018-08-10T10:23:08.509Z,14.20
2018-08-10T10:25:37.735Z,14.20
2018-08-10T10:28:07.582Z,14.30
2018-08-10T10:30:36.801Z,14.40
2018-08-10T10:33:06.113Z,14.70
2018-08-10T10:35:35.225Z,14.80
2018-08-10T10:38:04.527Z,15.20
2018-08-10T10:40:33.825Z,15.80
2018-08-10T10:43:03.085Z,16.30
2018-08-10T10:45:32.290Z,16.40
2018-08-10T10:48:01.414Z,16.60
2018-08-10T10:50:30.578Z,17.10
2018-08-10T10:53:00.967Z,17.80
2018-08-10T10:55:30.341Z,17.80
2018-08-10T10:57:59.471Z,18.20
2018-08-10T11:00:28.783Z,18.60
2018-08-10T11:02:58.003Z,18.40
2018-08-10T11:05:27.209Z,18.10
2018-08-10T11:07:56.379Z,17.80
2018-08-10T11:10:25.529Z,17.60
2018-08-10T11:12:54.697Z,17.40
2018-08-10T11:15:23.936Z,17.20
2018-08-10T11:17:53.085Z,16.60
2018-08-10T11:20:22.389Z,15.40
2018-08-10T11:22:51.544Z,14.70
2018-08-10T11:25:20.786Z,14.20
2018-08-10T11:28:16.250Z,14.00
2018-08-10T11:30:45.449Z,13.90
2018-08-10T11:33:14.743Z,13.90
2018-08-10T11:35:43.951Z,14.00
2018-08-10T11:38:13.146Z,14.10
2018-08-10T11:40:42.378Z,14.10
2018-08-10T11:43:11.597Z,14.00
2018-08-10T11:45:40.810Z,14.00
2018-08-10T11:48:10.083Z,13.90
2018-08-10T11:50:39.292Z,13.90
2018-08-10T11:53:08.493Z,14.00
2018-08-10T11:55:37.808Z,14.10
2018-08-10T11:58:07.051Z,14.10
2018-08-10T12:00:36.255Z,14.20
2018-08-10T12:03:05.460Z,14.40
2018-08-10T12:05:34.681Z,14.50
2018-08-10T12:08:03.891Z,14.60
2018-08-10T12:10:33.098Z,14.80
2018-08-10T12:13:02.303Z,14.90
2018-08-10T12:15:31.524Z,15.10
2018-08-10T12:18:00.720Z,15.50
2018-08-10T12:20:30.005Z,15.80
2018-08-10T12:22:59.171Z,16.10
2018-08-10T12:25:28.371Z,16.30
2018-08-10T12:27:57.576Z,16.30
2018-08-10T12:30:26.781Z,16.30
2018-08-10T12:32:56.008Z,16.40
2018-08-10T12:35:25.337Z,16.40
2018-08-10T12:37:54.558Z,16.60
2018-08-10T12:40:23.848Z,16.70
2018-08-10T12:42:52.951Z,16.70
2018-08-10T12:45:22.249Z,16.80
2018-08-10T12:47:51.606Z,17.00
2018-08-10T12:50:20.681Z,17.30
2018-08-10T12:52:49.872Z,17.60
2018-08-10T12:55:19.186Z,17.70
2018-08-10T12:57:48.404Z,17.90
2018-08-10T13:00:17.568Z,18.00
2018-08-10T13:02:46.771Z,18.00
2018-08-10T13:05:15.980Z,17.90
2018-08-10T13:07:45.187Z,17.60
2018-08-10T13:10:14.433Z,17.40
2018-08-10T13:12:43.614Z,17.10
2018-08-10T13:15:13.450Z,16.70
2018-08-10T13:17:42.659Z,16.20
2018-08-10T13:20:13.676Z,16.00
2018-08-10T13:22:43.084Z,15.80
2018-08-10T13:25:12.300Z,15.70
2018-08-10T13:27:48.329Z,15.50
2018-08-10T13:30:18.201Z,15.40
2018-08-10T13:32:48.195Z,15.30
2018-08-10T13:35:17.364Z,15.40
2018-08-10T13:37:46.513Z,15.30
2018-08-10T13:40:16.358Z,15.30
2018-08-10T13:42:45.648Z,15.50
2018-08-10T13:45:14.871Z,15.70
2018-08-10T13:47:44.049Z,15.90
2018-08-10T13:50:15.124Z,16.00
2018-08-10T13:52:44.486Z,16.30
2018-08-10T13:55:17.428Z,16.50
2018-08-10T13:57:47.766Z,17.00
2018-08-10T14:00:19.911Z,17.70
2018-08-10T14:02:51.002Z,17.70
2018-08-10T14:05:20.774Z,17.60
2018-08-10T14:07:50.298Z,17.50
2018-08-10T14:10:19.468Z,17.50
2018-08-10T14:12:48.708Z,17.50
2018-08-10T14:15:17.900Z,17.60
2018-08-10T14:17:47.086Z,17.50
2018-08-10T14:20:16.419Z,17.40
2018-08-10T14:22:45.548Z,17.30
2018-08-10T14:25:14.870Z,17.20
2018-08-10T14:27:44.045Z,17.10
2018-08-10T14:30:15.608Z,17.00
2018-08-10T14:32:44.832Z,16.90
2018-08-10T14:35:14.273Z,16.70
2018-08-10T14:37:43.538Z,16.50
2018-08-10T14:40:13.796Z,16.40
2018-08-10T14:42:43.013Z,16.20
2018-08-10T14:45:13.843Z,16.10
2018-08-10T14:47:43.192Z,16.00
2018-08-10T14:50:13.556Z,15.90
2018-08-10T14:52:42.802Z,15.90
2018-08-10T14:55:13.730Z,15.90
2018-08-10T14:57:43.027Z,15.80
2018-08-10T15:00:14.407Z,15.90
2018-08-10T15:02:43.666Z,15.90
2018-08-10T15:05:12.875Z,16.10
2018-08-10T15:07:42.422Z,16.30
2018-08-10T15:10:13.816Z,17.20
2018-08-10T15:12:43.437Z,18.20
2018-08-10T15:15:15.162Z,18.80
2018-08-10T15:17:44.829Z,19.10
2018-08-10T15:20:16.900Z,19.70
2018-08-10T15:22:46.244Z,19.90
2018-08-10T15:25:15.495Z,20.20
2018-08-10T15:27:44.738Z,20.10
2018-08-10T15:30:16.156Z,20.20
2018-08-10T15:32:45.328Z,20.40
2018-08-10T15:35:15.855Z,20.60
2018-08-10T15:37:45.444Z,20.30
2018-08-10T15:40:16.618Z,20.60
2018-08-10T15:42:45.897Z,20.90
2018-08-10T15:45:16.107Z,20.80
2018-08-10T15:47:45.976Z,21.00
2018-08-10T15:50:15.266Z,21.10
2018-08-10T15:52:45.568Z,20.40
2018-08-10T15:55:15.359Z,19.40
2018-08-10T15:57:44.856Z,19.00
2018-08-10T16:00:19.095Z,18.70
2018-08-10T16:02:48.708Z,18.70
2018-08-10T16:05:17.881Z,18.80
2018-08-10T16:07:47.120Z,19.70
2018-08-10T16:10:16.326Z,20.10
2018-08-10T16:12:48.895Z,19.40
2018-08-10T16:15:18.845Z,19.60
2018-08-10T16:17:48.178Z,20.00
2018-08-10T16:20:21.105Z,20.50
2018-08-10T16:22:50.701Z,19.70
2018-08-10T16:25:20.068Z,19.60
2018-08-10T16:27:49.317Z,20.10
2018-08-10T16:30:18.552Z,20.70
2018-08-10T16:32:47.794Z,21.30
2018-08-10T16:35:17.061Z,20.80
2018-08-10T16:37:47.138Z,20.60
2018-08-10T16:40:18.007Z,20.10
2018-08-10T16:42:47.384Z,19.40
2018-08-10T16:45:16.695Z,19.20
2018-08-10T16:47:46.011Z,19.00
2018-08-10T16:50:17.855Z,18.80
2018-08-10T16:52:47.220Z,18.80
2018-08-10T16:55:18.599Z,19.30
2018-08-10T16:57:48.464Z,19.90
2018-08-10T17:00:19.916Z,20.50
2018-08-10T17:02:49.296Z,20.90
2018-08-10T17:05:18.663Z,20.80
2018-08-10T17:07:47.835Z,20.50
2018-08-10T17:10:17.020Z,20.20
2018-08-10T17:12:46.597Z,20.00
2018-08-10T17:15:17.528Z,19.80
2018-08-10T17:17:47.522Z,19.50
2018-08-10T17:20:17.652Z,19.30
2018-08-10T17:22:47.144Z,19.20
2018-08-10T17:25:17.987Z,19.10
2018-08-10T17:27:47.297Z,19.00
2018-08-10T17:30:17.937Z,18.70
2018-08-10T17:32:47.205Z,18.20
2018-08-10T17:35:17.662Z,17.90
2018-08-10T17:37:47.347Z,17.80
2018-08-10T17:40:17.495Z,17.70
2018-08-10T17:42:46.857Z,17.60
2018-08-10T17:45:17.351Z,17.30
2018-08-10T17:47:46.904Z,17.10
2018-08-10T17:50:19.204Z,16.90
2018-08-10T17:52:53.113Z,16.90
2018-08-10T17:55:22.891Z,16.90
2018-08-10T17:57:52.303Z,16.80
2018-08-10T18:00:24.911Z,16.80
2018-08-10T18:02:54.714Z,16.80
2018-08-10T18:05:23.933Z,16.70
2018-08-10T18:07:53.560Z,16.70
2018-08-10T18:10:23.026Z,16.60
2018-08-10T18:12:53.148Z,16.50
2018-08-10T18:15:22.530Z,16.40
2018-08-10T18:17:52.753Z,16.40
2018-08-10T18:20:22.869Z,16.30
2018-08-10T18:22:55.740Z,16.30
2018-08-10T18:25:25.118Z,16.30
2018-08-10T18:27:54.998Z,16.20
2018-08-10T18:30:25.624Z,16.20
2018-08-10T18:32:55.278Z,16.10
2018-08-10T18:35:24.639Z,16.00
2018-08-10T18:37:54.061Z,16.00
2018-08-10T18:40:23.309Z,15.90
2018-08-10T18:42:52.589Z,15.90
2018-08-10T18:45:22.522Z,16.00
2018-08-10T18:47:51.890Z,16.00
2018-08-10T18:50:21.689Z,15.90
2018-08-10T18:52:51.029Z,15.90
2018-08-10T18:55:21.906Z,16.00
2018-08-10T18:57:51.807Z,16.00
2018-08-10T19:00:24.737Z,16.00
2018-08-10T19:02:54.646Z,16.00
2018-08-10T19:05:24.143Z,16.00
2018-08-10T19:07:53.740Z,16.00
2018-08-10T19:10:25.307Z,16.00
2018-08-10T19:12:54.691Z,16.10
2018-08-10T19:15:24.208Z,16.00
2018-08-10T19:17:54.346Z,16.00
2018-08-10T19:20:23.816Z,16.00
2018-08-10T19:22:53.326Z,16.00
2018-08-10T19:25:23.356Z,16.00
2018-08-10T19:27:52.825Z,16.00
2018-08-10T19:30:24.110Z,16.10
2018-08-10T19:32:53.675Z,16.10
2018-08-10T19:35:23.336Z,16.10
2018-08-10T19:37:53.630Z,16.10
2018-08-10T19:40:22.921Z,16.20
2018-08-10T19:42:52.272Z,16.20
2018-08-10T19:45:21.493Z,16.20
2018-08-10T19:47:51.159Z,16.20
2018-08-10T19:50:23.244Z,16.20
2018-08-10T19:52:53.003Z,16.20
2018-08-10T19:55:22.167Z,16.20
2018-08-10T19:57:51.360Z,16.20
2018-08-10T20:00:20.686Z,16.30
2018-08-10T20:02:51.065Z,16.30
2018-08-10T20:05:20.620Z,16.30
2018-08-10T20:07:49.774Z,16.20
2018-08-10T20:10:19.095Z,16.20
2018-08-10T20:12:48.408Z,16.10
2018-08-10T20:15:18.903Z,15.90
2018-08-10T20:17:48.010Z,15.70
2018-08-10T20:20:18.662Z,15.60
2018-08-10T20:22:48.109Z,15.50
2018-08-10T20:25:18.923Z,15.40
2018-08-10T20:27:48.115Z,15.40
2018-08-10T20:30:18.989Z,15.20
2018-08-10T20:32:48.663Z,15.10
2018-08-10T20:35:19.416Z,14.90
2018-08-10T20:37:48.735Z,14.80
2018-08-10T20:40:19.458Z,14.80
2018-08-10T20:42:49.246Z,14.80
2018-08-10T20:45:19.393Z,14.80
2018-08-10T20:47:48.672Z,14.70
2018-08-10T20:50:20.822Z,14.70
2018-08-10T20:52:50.032Z,14.70
2018-08-10T20:55:19.403Z,14.80
2018-08-10T20:57:49.011Z,14.80
2018-08-10T21:00:18.192Z,14.80
2018-08-10T21:02:47.430Z,14.90
2018-08-10T21:05:16.621Z,14.80
2018-08-10T21:07:45.783Z,14.80
2018-08-10T21:10:16.129Z,14.80
2018-08-10T21:12:46.080Z,14.80
2018-08-10T21:15:15.940Z,14.70
2018-08-10T21:17:45.946Z,14.70
2018-08-10T21:20:16.411Z,14.70
2018-08-10T21:22:45.665Z,14.60
2018-08-10T21:25:15.194Z,14.60
2018-08-10T21:27:45.246Z,14.60
2018-08-10T21:30:16.960Z,14.50
2018-08-10T21:32:46.215Z,14.50
2018-08-10T21:35:15.418Z,14.60
2018-08-10T21:37:44.665Z,14.50
2018-08-10T21:40:13.882Z,14.50
2018-08-10T21:42:43.359Z,14.50
2018-08-10T21:45:12.556Z,14.50
2018-08-10T21:47:41.771Z,14.60
2018-08-10T21:50:14.746Z,14.60
2018-08-10T21:52:44.778Z,14.60
2018-08-10T21:55:13.960Z,14.50
2018-08-10T21:57:43.230Z,14.50
2018-08-10T22:00:55.963Z,14.40
2018-08-10T22:03:25.116Z,14.40
2018-08-10T22:05:54.440Z,14.40
2018-08-10T22:08:24.202Z,14.30
2018-08-10T22:10:53.483Z,14.20
2018-08-10T22:13:28.709Z,14.10
2018-08-10T22:16:03.341Z,14.00
2018-08-10T22:18:37.889Z,13.80
2018-08-10T22:21:07.069Z,13.70
2018-08-10T22:23:36.227Z,13.70
2018-08-10T22:26:05.487Z,13.70
2018-08-10T22:28:34.623Z,13.60
2018-08-10T22:31:03.789Z,13.60
2018-08-10T22:33:33.022Z,13.50
2018-08-10T22:36:02.899Z,13.60
2018-08-10T22:38:32.105Z,13.50
2018-08-10T22:41:01.386Z,13.50
2018-08-10T22:43:31.223Z,13.50
2018-08-10T22:46:00.516Z,13.50
2018-08-10T22:48:29.794Z,13.60
2018-08-10T22:50:58.947Z,13.50
2018-08-10T22:53:28.230Z,13.50
2018-08-10T22:55:57.407Z,13.50
2018-08-10T22:58:26.707Z,13.50
2018-08-10T23:00:55.919Z,13.40
2018-08-10T23:03:25.109Z,13.40
2018-08-10T23:05:54.371Z,13.30
2018-08-10T23:08:23.687Z,13.30
2018-08-10T23:10:52.877Z,13.30
2018-08-10T23:13:22.105Z,13.30
2018-08-10T23:15:51.291Z,13.30
2018-08-10T23:18:20.642Z,13.20
2018-08-10T23:20:52.642Z,13.30
2018-08-10T23:23:21.836Z,13.30
2018-08-10T23:25:51.058Z,13.20
2018-08-10T23:28:20.302Z,13.20
2018-08-10T23:30:49.516Z,13.20
2018-08-10T23:33:18.692Z,13.10
2018-08-10T23:35:47.909Z,13.10
2018-08-10T23:38:17.140Z,13.10
2018-08-10T23:40:46.476Z,13.00
2018-08-10T23:43:15.811Z,13.00
2018-08-10T23:45:45.097Z,13.10
2018-08-10T23:48:14.264Z,13.00
2018-08-10T23:50:43.652Z,13.00
2018-08-10T23:53:12.793Z,13.00
2018-08-10T23:55:41.923Z,13.00
2018-08-10T23:58:11.291Z,13.00
